sensor_id;sensor_type;location;lat;lon;timestamp;temperature;humidity
12849;DHT22;6493;50.928;7.172;2023-12-20T00:03:00;4.10;74.40
12849;DHT22;6493;50.928;7.172;2023-12-20T00:08:06;4.10;74.50
12849;DHT22;6493;50.928;7.172;2023-12-20T00:13:11;4.10;74.50
12849;DHT22;6493;50.928;7.172;2023-12-20T00:18:15;4.10;74.50
12849;DHT22;6493;50.928;7.172;2023-12-20T00:23:20;4.10;74.40
12849;DHT22;6493;50.928;7.172;2023-12-20T00:28:25;4.10;74.60
12849;DHT22;6493;50.928;7.172;2023-12-20T00:33:29;4.10;74.50
12849;DHT22;6493;50.928;7.172;2023-12-20T00:38:34;4.10;74.50
12849;DHT22;6493;50.928;7.172;2023-12-20T00:43:41;4.20;74.80
12849;DHT22;6493;50.928;7.172;2023-12-20T00:48:45;4.20;74.70
12849;DHT22;6493;50.928;7.172;2023-12-20T00:53:51;4.20;74.90
12849;DHT22;6493;50.928;7.172;2023-12-20T00:58:57;4.10;74.90
12849;DHT22;6493;50.928;7.172;2023-12-20T01:04:01;4.10;74.80
12849;DHT22;6493;50.928;7.172;2023-12-20T01:09:07;4.10;74.70
12849;DHT22;6493;50.928;7.172;2023-12-20T01:14:11;4.10;74.70
12849;DHT22;6493;50.928;7.172;2023-12-20T01:19:14;4.20;74.80
12849;DHT22;6493;50.928;7.172;2023-12-20T01:24:20;4.20;74.90
12849;DHT22;6493;50.928;7.172;2023-12-20T01:29:23;4.20;74.80
12849;DHT22;6493;50.928;7.172;2023-12-20T01:34:28;4.10;74.60
12849;DHT22;6493;50.928;7.172;2023-12-20T01:39:33;4.20;74.60
12849;DHT22;6493;50.928;7.172;2023-12-20T01:44:37;4.10;74.50
12849;DHT22;6493;50.928;7.172;2023-12-20T01:49:41;4.10;74.40
12849;DHT22;6493;50.928;7.172;2023-12-20T01:54:47;4.10;74.30
12849;DHT22;6493;50.928;7.172;2023-12-20T01:59:51;4.10;74.30
12849;DHT22;6493;50.928;7.172;2023-12-20T02:04:55;4.00;74.20
12849;DHT22;6493;50.928;7.172;2023-12-20T02:10:01;4.00;74.30
12849;DHT22;6493;50.928;7.172;2023-12-20T02:15:05;4.00;74.20
12849;DHT22;6493;50.928;7.172;2023-12-20T02:20:10;4.00;74.30
12849;DHT22;6493;50.928;7.172;2023-12-20T02:25:15;3.90;74.20
12849;DHT22;6493;50.928;7.172;2023-12-20T02:30:19;3.90;74.10
12849;DHT22;6493;50.928;7.172;2023-12-20T02:35:23;3.80;74.00
12849;DHT22;6493;50.928;7.172;2023-12-20T02:40:28;3.80;73.80
12849;DHT22;6493;50.928;7.172;2023-12-20T02:45:32;3.80;73.70
12849;DHT22;6493;50.928;7.172;2023-12-20T02:50:35;3.70;74.70
12849;DHT22;6493;50.928;7.172;2023-12-20T02:55:44;3.60;74.40
12849;DHT22;6493;50.928;7.172;2023-12-20T03:00:47;3.50;74.20
12849;DHT22;6493;50.928;7.172;2023-12-20T03:05:52;3.50;74.10
12849;DHT22;6493;50.928;7.172;2023-12-20T03:10:58;3.40;74.20
12849;DHT22;6493;50.928;7.172;2023-12-20T03:16:08;3.30;74.20
12849;DHT22;6493;50.928;7.172;2023-12-20T03:21:11;3.20;74.30
12849;DHT22;6493;50.928;7.172;2023-12-20T03:26:17;3.20;74.30
12849;DHT22;6493;50.928;7.172;2023-12-20T03:31:21;3.20;74.40
12849;DHT22;6493;50.928;7.172;2023-12-20T03:36:25;3.20;74.40
12849;DHT22;6493;50.928;7.172;2023-12-20T03:41:30;3.20;74.50
12849;DHT22;6493;50.928;7.172;2023-12-20T03:46:34;3.20;74.50
12849;DHT22;6493;50.928;7.172;2023-12-20T03:51:38;3.10;74.30
12849;DHT22;6493;50.928;7.172;2023-12-20T03:56:43;3.20;74.50
12849;DHT22;6493;50.928;7.172;2023-12-20T04:01:46;3.10;75.00
12849;DHT22;6493;50.928;7.172;2023-12-20T04:06:50;3.10;74.30
12849;DHT22;6493;50.928;7.172;2023-12-20T04:11:56;3.10;74.40
12849;DHT22;6493;50.928;7.172;2023-12-20T04:16:59;3.10;74.40
12849;DHT22;6493;50.928;7.172;2023-12-20T04:22:03;3.10;74.30
12849;DHT22;6493;50.928;7.172;2023-12-20T04:27:08;3.10;74.30
12849;DHT22;6493;50.928;7.172;2023-12-20T04:32:12;3.10;74.40
12849;DHT22;6493;50.928;7.172;2023-12-20T04:37:16;3.10;74.40
12849;DHT22;6493;50.928;7.172;2023-12-20T04:42:21;3.10;74.40
12849;DHT22;6493;50.928;7.172;2023-12-20T04:47:24;3.10;74.40
12849;DHT22;6493;50.928;7.172;2023-12-20T04:52:28;3.00;74.30
12849;DHT22;6493;50.928;7.172;2023-12-20T04:57:33;3.10;74.40
12849;DHT22;6493;50.928;7.172;2023-12-20T05:02:37;3.10;74.40
12849;DHT22;6493;50.928;7.172;2023-12-20T05:07:41;3.00;74.20
12849;DHT22;6493;50.928;7.172;2023-12-20T05:12:47;3.00;74.20
12849;DHT22;6493;50.928;7.172;2023-12-20T05:17:51;3.00;74.10
12849;DHT22;6493;50.928;7.172;2023-12-20T05:22:54;3.00;74.20
12849;DHT22;6493;50.928;7.172;2023-12-20T05:27:59;3.00;74.30
12849;DHT22;6493;50.928;7.172;2023-12-20T05:33:03;3.00;74.30
12849;DHT22;6493;50.928;7.172;2023-12-20T05:38:07;3.00;74.20
12849;DHT22;6493;50.928;7.172;2023-12-20T05:43:12;3.00;74.20
12849;DHT22;6493;50.928;7.172;2023-12-20T05:48:16;3.00;74.20
12849;DHT22;6493;50.928;7.172;2023-12-20T05:53:20;3.00;74.20
12849;DHT22;6493;50.928;7.172;2023-12-20T05:58:25;3.00;74.10
12849;DHT22;6493;50.928;7.172;2023-12-20T06:03:29;3.00;74.10
12849;DHT22;6493;50.928;7.172;2023-12-20T06:08:33;3.00;74.10
12849;DHT22;6493;50.928;7.172;2023-12-20T06:13:38;3.00;74.00
12849;DHT22;6493;50.928;7.172;2023-12-20T06:18:42;2.90;73.90
12849;DHT22;6493;50.928;7.172;2023-12-20T06:23:46;2.90;74.00
12849;DHT22;6493;50.928;7.172;2023-12-20T06:28:51;2.90;73.90
12849;DHT22;6493;50.928;7.172;2023-12-20T06:33:54;2.90;73.90
12849;DHT22;6493;50.928;7.172;2023-12-20T06:39:00;2.90;74.00
12849;DHT22;6493;50.928;7.172;2023-12-20T06:44:06;2.90;74.00
12849;DHT22;6493;50.928;7.172;2023-12-20T06:49:10;2.90;74.70
12849;DHT22;6493;50.928;7.172;2023-12-20T06:54:14;2.90;74.00
12849;DHT22;6493;50.928;7.172;2023-12-20T06:59:19;2.90;74.00
12849;DHT22;6493;50.928;7.172;2023-12-20T07:04:23;2.90;74.00
12849;DHT22;6493;50.928;7.172;2023-12-20T07:09:27;2.90;74.00
12849;DHT22;6493;50.928;7.172;2023-12-20T07:14:32;2.90;74.00
12849;DHT22;6493;50.928;7.172;2023-12-20T07:19:35;2.90;74.00
12849;DHT22;6493;50.928;7.172;2023-12-20T07:24:39;2.90;74.00
12849;DHT22;6493;50.928;7.172;2023-12-20T07:29:44;2.90;74.00
12849;DHT22;6493;50.928;7.172;2023-12-20T07:34:49;2.90;74.00
12849;DHT22;6493;50.928;7.172;2023-12-20T07:39:53;2.90;74.00
12849;DHT22;6493;50.928;7.172;2023-12-20T07:44:58;2.90;74.00
12849;DHT22;6493;50.928;7.172;2023-12-20T07:50:03;2.90;74.00
12849;DHT22;6493;50.928;7.172;2023-12-20T07:55:07;2.90;74.00
12849;DHT22;6493;50.928;7.172;2023-12-20T08:00:13;2.90;74.00
12849;DHT22;6493;50.928;7.172;2023-12-20T08:05:17;3.00;74.70
12849;DHT22;6493;50.928;7.172;2023-12-20T08:10:21;2.90;73.90
12849;DHT22;6493;50.928;7.172;2023-12-20T08:15:26;2.90;73.90
12849;DHT22;6493;50.928;7.172;2023-12-20T08:20:30;2.90;73.90
12849;DHT22;6493;50.928;7.172;2023-12-20T08:25:42;3.00;73.90
12849;DHT22;6493;50.928;7.172;2023-12-20T08:30:47;3.00;73.70
12849;DHT22;6493;50.928;7.172;2023-12-20T08:35:51;3.00;73.80
12849;DHT22;6493;50.928;7.172;2023-12-20T08:40:54;2.90;73.70
12849;DHT22;6493;50.928;7.172;2023-12-20T08:46:00;3.00;73.80
12849;DHT22;6493;50.928;7.172;2023-12-20T08:51:04;3.00;73.80
12849;DHT22;6493;50.928;7.172;2023-12-20T08:56:12;3.00;74.10
12849;DHT22;6493;50.928;7.172;2023-12-20T09:01:17;3.00;73.70
12849;DHT22;6493;50.928;7.172;2023-12-20T09:06:20;3.00;73.70
12849;DHT22;6493;50.928;7.172;2023-12-20T09:11:24;3.00;73.70
12849;DHT22;6493;50.928;7.172;2023-12-20T09:16:30;3.00;73.60
12849;DHT22;6493;50.928;7.172;2023-12-20T09:21:34;3.00;73.60
12849;DHT22;6493;50.928;7.172;2023-12-20T09:26:37;3.00;73.50
12849;DHT22;6493;50.928;7.172;2023-12-20T09:31:43;3.00;73.50
12849;DHT22;6493;50.928;7.172;2023-12-20T09:36:49;3.10;73.40
12849;DHT22;6493;50.928;7.172;2023-12-20T09:42:00;3.10;73.40
12849;DHT22;6493;50.928;7.172;2023-12-20T09:47:06;3.00;73.40
12849;DHT22;6493;50.928;7.172;2023-12-20T09:52:11;3.10;73.40
12849;DHT22;6493;50.928;7.172;2023-12-20T09:57:16;3.00;73.20
12849;DHT22;6493;50.928;7.172;2023-12-20T10:02:25;3.10;73.40
12849;DHT22;6493;50.928;7.172;2023-12-20T10:07:29;3.10;73.50
12849;DHT22;6493;50.928;7.172;2023-12-20T10:12:33;3.10;73.50
12849;DHT22;6493;50.928;7.172;2023-12-20T10:17:38;3.10;73.40
12849;DHT22;6493;50.928;7.172;2023-12-20T10:22:44;3.10;73.20
12849;DHT22;6493;50.928;7.172;2023-12-20T10:27:50;3.10;73.20
12849;DHT22;6493;50.928;7.172;2023-12-20T10:32:56;3.20;73.30
12849;DHT22;6493;50.928;7.172;2023-12-20T10:38:03;3.20;73.40
12849;DHT22;6493;50.928;7.172;2023-12-20T10:43:08;3.20;73.40
12849;DHT22;6493;50.928;7.172;2023-12-20T10:48:15;3.20;73.30
12849;DHT22;6493;50.928;7.172;2023-12-20T10:53:20;3.30;73.40
12849;DHT22;6493;50.928;7.172;2023-12-20T10:58:26;3.30;73.40
12849;DHT22;6493;50.928;7.172;2023-12-20T11:03:35;3.30;73.20
12849;DHT22;6493;50.928;7.172;2023-12-20T11:08:44;3.30;73.20
12849;DHT22;6493;50.928;7.172;2023-12-20T11:13:55;3.30;73.90
12849;DHT22;6493;50.928;7.172;2023-12-20T11:19:06;3.30;73.30
12849;DHT22;6493;50.928;7.172;2023-12-20T11:24:10;3.30;73.40
12849;DHT22;6493;50.928;7.172;2023-12-20T11:29:30;3.30;73.40
12849;DHT22;6493;50.928;7.172;2023-12-20T11:34:36;3.40;73.30
12849;DHT22;6493;50.928;7.172;2023-12-20T11:39:43;3.40;73.10
12849;DHT22;6493;50.928;7.172;2023-12-20T11:44:47;3.40;73.30
12849;DHT22;6493;50.928;7.172;2023-12-20T11:49:52;3.40;73.00
12849;DHT22;6493;50.928;7.172;2023-12-20T11:54:58;3.40;73.20
12849;DHT22;6493;50.928;7.172;2023-12-20T12:00:03;3.40;73.30
12849;DHT22;6493;50.928;7.172;2023-12-20T12:05:14;3.50;73.10
12849;DHT22;6493;50.928;7.172;2023-12-20T12:10:18;3.50;73.00
12849;DHT22;6493;50.928;7.172;2023-12-20T12:15:22;3.50;73.10
12849;DHT22;6493;50.928;7.172;2023-12-20T12:20:27;3.50;73.10
12849;DHT22;6493;50.928;7.172;2023-12-20T12:25:32;3.50;73.10
12849;DHT22;6493;50.928;7.172;2023-12-20T12:30:37;3.50;73.10
12849;DHT22;6493;50.928;7.172;2023-12-20T12:35:53;3.50;72.90
12849;DHT22;6493;50.928;7.172;2023-12-20T12:40:57;3.60;73.10
12849;DHT22;6493;50.928;7.172;2023-12-20T12:46:01;3.60;73.10
12849;DHT22;6493;50.928;7.172;2023-12-20T12:51:06;3.60;73.00
12849;DHT22;6493;50.928;7.172;2023-12-20T12:56:15;3.60;73.10
12849;DHT22;6493;50.928;7.172;2023-12-20T13:01:19;3.60;73.10
12849;DHT22;6493;50.928;7.172;2023-12-20T13:06:24;3.60;73.10
12849;DHT22;6493;50.928;7.172;2023-12-20T13:11:28;3.60;73.10
12849;DHT22;6493;50.928;7.172;2023-12-20T13:16:33;3.60;73.00
12849;DHT22;6493;50.928;7.172;2023-12-20T13:21:39;3.60;73.00
12849;DHT22;6493;50.928;7.172;2023-12-20T13:26:43;3.60;72.90
12849;DHT22;6493;50.928;7.172;2023-12-20T13:31:47;3.60;73.10
12849;DHT22;6493;50.928;7.172;2023-12-20T13:36:52;3.60;73.10
12849;DHT22;6493;50.928;7.172;2023-12-20T13:41:56;3.60;73.10
12849;DHT22;6493;50.928;7.172;2023-12-20T13:47:03;3.60;73.20
12849;DHT22;6493;50.928;7.172;2023-12-20T13:52:08;3.60;73.30
12849;DHT22;6493;50.928;7.172;2023-12-20T13:57:12;3.60;73.30
12849;DHT22;6493;50.928;7.172;2023-12-20T14:02:33;3.60;73.30
12849;DHT22;6493;50.928;7.172;2023-12-20T14:07:38;3.50;73.20
12849;DHT22;6493;50.928;7.172;2023-12-20T14:12:42;3.60;73.40
12849;DHT22;6493;50.928;7.172;2023-12-20T14:17:47;3.60;73.50
12849;DHT22;6493;50.928;7.172;2023-12-20T14:22:53;3.60;73.40
12849;DHT22;6493;50.928;7.172;2023-12-20T14:27:57;3.60;73.50
12849;DHT22;6493;50.928;7.172;2023-12-20T14:33:02;3.60;73.50
12849;DHT22;6493;50.928;7.172;2023-12-20T14:38:07;3.60;73.50
12849;DHT22;6493;50.928;7.172;2023-12-20T14:43:11;3.60;73.60
12849;DHT22;6493;50.928;7.172;2023-12-20T14:48:15;3.60;73.60
12849;DHT22;6493;50.928;7.172;2023-12-20T14:53:20;3.70;73.60
12849;DHT22;6493;50.928;7.172;2023-12-20T14:58:25;3.70;73.60
12849;DHT22;6493;50.928;7.172;2023-12-20T15:03:29;3.70;73.60
12849;DHT22;6493;50.928;7.172;2023-12-20T15:08:35;3.70;73.60
12849;DHT22;6493;50.928;7.172;2023-12-20T15:13:38;3.70;73.60
12849;DHT22;6493;50.928;7.172;2023-12-20T15:18:42;3.80;72.50
12849;DHT22;6493;50.928;7.172;2023-12-20T15:23:47;3.80;72.50
12849;DHT22;6493;50.928;7.172;2023-12-20T15:28:55;3.90;72.50
12849;DHT22;6493;50.928;7.172;2023-12-20T15:33:59;3.90;72.50
12849;DHT22;6493;50.928;7.172;2023-12-20T15:39:04;3.80;73.10
12849;DHT22;6493;50.928;7.172;2023-12-20T15:44:10;3.90;72.50
12849;DHT22;6493;50.928;7.172;2023-12-20T15:49:14;3.90;72.40
12849;DHT22;6493;50.928;7.172;2023-12-20T15:54:21;3.90;72.40
12849;DHT22;6493;50.928;7.172;2023-12-20T15:59:25;3.90;72.40
12849;DHT22;6493;50.928;7.172;2023-12-20T16:04:29;3.90;72.40
12849;DHT22;6493;50.928;7.172;2023-12-20T16:09:35;3.90;72.50
12849;DHT22;6493;50.928;7.172;2023-12-20T16:14:38;3.90;72.40
12849;DHT22;6493;50.928;7.172;2023-12-20T16:19:42;3.90;72.40
12849;DHT22;6493;50.928;7.172;2023-12-20T16:24:47;3.90;72.40
12849;DHT22;6493;50.928;7.172;2023-12-20T16:29:51;3.90;72.40
12849;DHT22;6493;50.928;7.172;2023-12-20T16:34:55;3.90;72.60
12849;DHT22;6493;50.928;7.172;2023-12-20T16:40:00;3.90;72.50
12849;DHT22;6493;50.928;7.172;2023-12-20T16:45:05;4.00;72.70
12849;DHT22;6493;50.928;7.172;2023-12-20T16:50:10;4.00;72.70
12849;DHT22;6493;50.928;7.172;2023-12-20T16:55:15;4.00;72.60
12849;DHT22;6493;50.928;7.172;2023-12-20T17:00:20;4.00;72.60
12849;DHT22;6493;50.928;7.172;2023-12-20T17:05:25;4.00;72.60
12849;DHT22;6493;50.928;7.172;2023-12-20T17:10:30;4.00;72.70
12849;DHT22;6493;50.928;7.172;2023-12-20T17:15:34;4.00;72.60
12849;DHT22;6493;50.928;7.172;2023-12-20T17:20:37;4.00;72.60
12849;DHT22;6493;50.928;7.172;2023-12-20T17:25:43;4.10;72.70
12849;DHT22;6493;50.928;7.172;2023-12-20T17:30:46;4.10;72.70
12849;DHT22;6493;50.928;7.172;2023-12-20T17:35:50;4.00;72.60
12849;DHT22;6493;50.928;7.172;2023-12-20T17:40:59;4.10;72.70
12849;DHT22;6493;50.928;7.172;2023-12-20T17:46:03;4.10;72.70
12849;DHT22;6493;50.928;7.172;2023-12-20T17:51:07;4.10;72.70
12849;DHT22;6493;50.928;7.172;2023-12-20T17:56:12;4.10;72.70
12849;DHT22;6493;50.928;7.172;2023-12-20T18:01:16;4.10;72.70
12849;DHT22;6493;50.928;7.172;2023-12-20T18:06:20;4.10;72.70
12849;DHT22;6493;50.928;7.172;2023-12-20T18:11:26;4.10;72.70
12849;DHT22;6493;50.928;7.172;2023-12-20T18:16:30;4.10;72.70
12849;DHT22;6493;50.928;7.172;2023-12-20T18:21:38;4.20;72.80
12849;DHT22;6493;50.928;7.172;2023-12-20T18:26:43;4.20;72.80
12849;DHT22;6493;50.928;7.172;2023-12-20T18:31:47;4.20;72.80
12849;DHT22;6493;50.928;7.172;2023-12-20T18:36:50;4.20;72.80
12849;DHT22;6493;50.928;7.172;2023-12-20T18:41:56;4.30;72.80
12849;DHT22;6493;50.928;7.172;2023-12-20T18:47:00;4.30;72.90
12849;DHT22;6493;50.928;7.172;2023-12-20T18:52:04;4.30;72.80
12849;DHT22;6493;50.928;7.172;2023-12-20T18:57:10;4.30;72.70
12849;DHT22;6493;50.928;7.172;2023-12-20T19:02:14;4.30;72.60
12849;DHT22;6493;50.928;7.172;2023-12-20T19:07:18;4.30;72.60
12849;DHT22;6493;50.928;7.172;2023-12-20T19:12:23;4.40;72.70
12849;DHT22;6493;50.928;7.172;2023-12-20T19:17:27;4.40;72.80
12849;DHT22;6493;50.928;7.172;2023-12-20T19:22:31;4.40;73.60
12849;DHT22;6493;50.928;7.172;2023-12-20T19:27:37;4.40;72.70
12849;DHT22;6493;50.928;7.172;2023-12-20T19:32:41;4.40;72.70
12849;DHT22;6493;50.928;7.172;2023-12-20T19:37:45;4.40;72.60
12849;DHT22;6493;50.928;7.172;2023-12-20T19:42:51;4.40;72.60
12849;DHT22;6493;50.928;7.172;2023-12-20T19:47:54;4.50;72.70
12849;DHT22;6493;50.928;7.172;2023-12-20T19:52:58;4.50;72.70
12849;DHT22;6493;50.928;7.172;2023-12-20T19:58:04;4.50;72.70
12849;DHT22;6493;50.928;7.172;2023-12-20T20:03:07;4.50;72.70
12849;DHT22;6493;50.928;7.172;2023-12-20T20:08:11;4.50;72.70
12849;DHT22;6493;50.928;7.172;2023-12-20T20:13:16;4.50;72.80
12849;DHT22;6493;50.928;7.172;2023-12-20T20:18:20;4.50;72.80
12849;DHT22;6493;50.928;7.172;2023-12-20T20:23:24;4.50;72.80
12849;DHT22;6493;50.928;7.172;2023-12-20T20:28:30;4.60;72.90
12849;DHT22;6493;50.928;7.172;2023-12-20T20:33:33;4.60;72.90
12849;DHT22;6493;50.928;7.172;2023-12-20T20:38:37;4.60;73.00
12849;DHT22;6493;50.928;7.172;2023-12-20T20:43:42;4.60;72.90
12849;DHT22;6493;50.928;7.172;2023-12-20T20:48:47;4.50;72.80
12849;DHT22;6493;50.928;7.172;2023-12-20T20:53:54;4.50;72.90
12849;DHT22;6493;50.928;7.172;2023-12-20T20:59:14;4.50;73.10
12849;DHT22;6493;50.928;7.172;2023-12-20T21:04:18;4.50;73.10
12849;DHT22;6493;50.928;7.172;2023-12-20T21:09:22;4.50;73.10
12849;DHT22;6493;50.928;7.172;2023-12-20T21:14:27;4.50;73.20
12849;DHT22;6493;50.928;7.172;2023-12-20T21:19:31;4.50;73.40
12849;DHT22;6493;50.928;7.172;2023-12-20T21:24:35;4.50;73.40
12849;DHT22;6493;50.928;7.172;2023-12-20T21:29:39;4.50;73.50
12849;DHT22;6493;50.928;7.172;2023-12-20T21:34:43;4.50;73.60
12849;DHT22;6493;50.928;7.172;2023-12-20T21:39:47;4.50;73.50
12849;DHT22;6493;50.928;7.172;2023-12-20T21:44:53;4.50;73.60
12849;DHT22;6493;50.928;7.172;2023-12-20T21:49:57;4.60;73.60
12849;DHT22;6493;50.928;7.172;2023-12-20T21:55:01;4.60;73.60
12849;DHT22;6493;50.928;7.172;2023-12-20T22:00:07;4.60;73.60
12849;DHT22;6493;50.928;7.172;2023-12-20T22:05:11;4.60;73.60
12849;DHT22;6493;50.928;7.172;2023-12-20T22:10:15;4.60;73.70
12849;DHT22;6493;50.928;7.172;2023-12-20T22:15:20;4.60;73.60
12849;DHT22;6493;50.928;7.172;2023-12-20T22:20:25;4.60;73.60
12849;DHT22;6493;50.928;7.172;2023-12-20T22:25:29;4.60;73.60
12849;DHT22;6493;50.928;7.172;2023-12-20T22:30:34;4.60;73.60
12849;DHT22;6493;50.928;7.172;2023-12-20T22:35:38;4.60;73.80
12849;DHT22;6493;50.928;7.172;2023-12-20T22:40:42;4.60;73.70
12849;DHT22;6493;50.928;7.172;2023-12-20T22:45:47;4.60;73.90
12849;DHT22;6493;50.928;7.172;2023-12-20T22:50:51;4.60;74.00
12849;DHT22;6493;50.928;7.172;2023-12-20T22:55:54;4.60;73.90
12849;DHT22;6493;50.928;7.172;2023-12-20T23:01:00;4.60;74.00
12849;DHT22;6493;50.928;7.172;2023-12-20T23:06:04;4.60;74.20
12849;DHT22;6493;50.928;7.172;2023-12-20T23:11:08;4.60;74.30
12849;DHT22;6493;50.928;7.172;2023-12-20T23:16:16;4.60;74.60
12849;DHT22;6493;50.928;7.172;2023-12-20T23:21:20;4.60;74.60
12849;DHT22;6493;50.928;7.172;2023-12-20T23:26:23;4.60;75.00
12849;DHT22;6493;50.928;7.172;2023-12-20T23:31:28;4.60;74.70
12849;DHT22;6493;50.928;7.172;2023-12-20T23:36:32;4.60;74.70
12849;DHT22;6493;50.928;7.172;2023-12-20T23:41:36;4.60;74.60
12849;DHT22;6493;50.928;7.172;2023-12-20T23:46:41;4.60;74.80
12849;DHT22;6493;50.928;7.172;2023-12-20T23:51:45;4.60;74.90
12849;DHT22;6493;50.928;7.172;2023-12-20T23:56:48;4.70;75.70
